createdAt,value
2019-02-19T00:02:26.006Z,61.80
2019-02-19T00:04:58.626Z,61.80
2019-02-19T00:07:32.189Z,61.80
2019-02-19T00:10:05.322Z,61.90
2019-02-19T00:12:38.206Z,61.70
2019-02-19T00:15:10.545Z,61.30
2019-02-19T00:17:43.008Z,60.80
2019-02-19T00:20:16.207Z,60.90
2019-02-19T00:22:48.768Z,61.40
2019-02-19T00:25:21.466Z,61.70
2019-02-19T00:27:54.207Z,61.40
2019-02-19T00:30:27.007Z,61.40
2019-02-19T00:33:00.609Z,61.60
2019-02-19T00:35:32.966Z,61.90
2019-02-19T00:38:06.391Z,61.70
2019-02-19T00:40:39.007Z,61.60
2019-02-19T00:43:11.868Z,62.50
2019-02-19T00:45:45.546Z,62.10
2019-02-19T00:48:17.626Z,62.10
2019-02-19T00:50:50.846Z,62.10
2019-02-19T00:53:24.045Z,61.90
2019-02-19T00:55:56.625Z,62.30
2019-02-19T00:58:29.086Z,62.20
2019-02-19T01:01:01.726Z,62.00
2019-02-19T01:03:34.406Z,62.30
2019-02-19T01:06:06.908Z,62.10
2019-02-19T01:08:40.287Z,62.00
2019-02-19T01:11:12.307Z,61.90
2019-02-19T01:13:44.905Z,61.80
2019-02-19T01:16:17.445Z,61.70
2019-02-19T01:18:50.386Z,61.80
2019-02-19T01:21:23.451Z,62.10
2019-02-19T01:23:56.266Z,61.90
2019-02-19T01:26:28.785Z,61.80
2019-02-19T01:29:01.266Z,61.80
2019-02-19T01:31:33.467Z,62.10
2019-02-19T01:34:05.205Z,62.10
2019-02-19T01:36:38.106Z,62.30
2019-02-19T01:39:11.205Z,62.30
2019-02-19T01:41:44.566Z,62.40
2019-02-19T01:44:18.206Z,62.30
2019-02-19T01:46:50.725Z,62.10
2019-02-19T01:49:23.946Z,62.20
2019-02-19T01:51:58.048Z,62.50
2019-02-19T01:54:31.225Z,62.60
2019-02-19T01:57:04.086Z,62.50
2019-02-19T01:59:37.327Z,62.70
2019-02-19T02:02:10.487Z,62.70
2019-02-19T02:04:43.805Z,63.00
2019-02-19T02:07:17.427Z,63.20
2019-02-19T02:09:50.325Z,63.40
2019-02-19T02:12:22.806Z,63.60
2019-02-19T02:14:55.846Z,63.60
2019-02-19T02:17:28.825Z,63.80
2019-02-19T02:20:01.905Z,64.00
2019-02-19T02:22:34.266Z,64.00
2019-02-19T02:25:06.869Z,64.20
2019-02-19T02:27:39.825Z,64.00
2019-02-19T02:30:13.247Z,63.90
2019-02-19T02:32:45.406Z,63.80
2019-02-19T02:35:17.740Z,63.80
2019-02-19T02:37:50.986Z,63.70
2019-02-19T02:40:24.106Z,63.80
2019-02-19T02:42:56.386Z,64.10
2019-02-19T02:45:28.966Z,64.60
2019-02-19T02:48:01.745Z,64.50
2019-02-19T02:50:35.329Z,64.40
2019-02-19T02:53:08.246Z,64.10
2019-02-19T02:55:40.446Z,64.00
2019-02-19T02:58:12.986Z,64.20
2019-02-19T03:00:45.727Z,64.40
2019-02-19T03:03:19.306Z,64.30
2019-02-19T03:06:36.173Z,63.60
2019-02-19T03:09:09.687Z,63.60
2019-02-19T03:11:42.307Z,63.90
2019-02-19T03:14:14.846Z,63.80
2019-02-19T03:16:47.526Z,63.90
2019-02-19T03:19:21.150Z,63.50
2019-02-19T03:21:54.526Z,63.10
2019-02-19T03:24:27.288Z,63.20
2019-02-19T03:27:00.030Z,63.10
2019-02-19T03:29:32.548Z,63.30
2019-02-19T03:32:05.555Z,63.40
2019-02-19T03:34:38.628Z,63.40
2019-02-19T03:37:11.047Z,63.00
2019-02-19T03:39:43.927Z,62.80
2019-02-19T03:42:16.626Z,63.20
2019-02-19T03:44:48.646Z,63.30
2019-02-19T03:47:22.053Z,63.50
2019-02-19T03:49:55.033Z,63.60
2019-02-19T03:52:27.494Z,63.30
2019-02-19T03:55:01.046Z,62.90
2019-02-19T03:57:35.145Z,62.80
2019-02-19T04:00:09.007Z,62.70
2019-02-19T04:02:42.105Z,62.90
2019-02-19T04:05:14.026Z,62.90
2019-02-19T04:07:46.467Z,62.90
2019-02-19T04:10:20.206Z,62.60
2019-02-19T04:12:53.147Z,62.20
2019-02-19T04:15:25.688Z,62.20
2019-02-19T04:17:58.067Z,63.20
2019-02-19T04:20:31.406Z,62.60
2019-02-19T04:23:04.247Z,63.00
2019-02-19T04:25:37.051Z,63.10
2019-02-19T04:28:09.627Z,62.70
2019-02-19T04:30:42.226Z,62.40
2019-02-19T04:33:15.308Z,62.50
2019-02-19T04:35:47.829Z,62.20
2019-02-19T04:38:20.372Z,62.20
2019-02-19T04:40:52.287Z,62.00
2019-02-19T04:43:24.910Z,62.30
2019-02-19T04:45:57.726Z,62.90
2019-02-19T04:48:30.807Z,63.10
2019-02-19T04:51:04.107Z,63.30
2019-02-19T04:53:36.307Z,63.30
2019-02-19T04:56:08.286Z,63.70
2019-02-19T04:58:41.155Z,64.30
2019-02-19T05:01:13.448Z,64.20
2019-02-19T05:03:45.789Z,64.20
2019-02-19T05:06:19.192Z,64.40
2019-02-19T05:08:52.412Z,64.40
2019-02-19T05:11:24.486Z,64.70
2019-02-19T05:13:57.066Z,65.20
2019-02-19T05:16:29.906Z,65.70
2019-02-19T05:19:02.490Z,65.60
2019-02-19T05:21:34.752Z,65.50
2019-02-19T05:24:08.153Z,65.20
2019-02-19T05:26:40.927Z,64.90
2019-02-19T05:29:13.546Z,64.70
2019-02-19T05:31:46.067Z,64.70
2019-02-19T05:34:19.670Z,64.20
2019-02-19T05:36:51.866Z,62.60
2019-02-19T05:39:24.389Z,60.90
2019-02-19T05:41:56.767Z,59.90
2019-02-19T05:44:30.047Z,59.40
2019-02-19T05:47:02.826Z,59.00
2019-02-19T05:49:35.768Z,58.80
2019-02-19T05:52:08.507Z,58.60
2019-02-19T05:54:41.110Z,58.40
2019-02-19T05:57:14.057Z,58.10
2019-02-19T05:59:46.925Z,57.60
2019-02-19T06:02:19.566Z,57.40
2019-02-19T06:04:53.167Z,57.40
2019-02-19T06:07:25.572Z,57.70
2019-02-19T06:09:58.046Z,57.40
2019-02-19T06:12:30.708Z,57.70
2019-02-19T06:15:03.547Z,58.00
2019-02-19T06:17:35.871Z,58.10
2019-02-19T06:20:08.686Z,59.30
2019-02-19T06:22:42.069Z,58.40
2019-02-19T06:25:15.403Z,58.30
2019-02-19T06:27:48.766Z,58.70
2019-02-19T06:30:21.426Z,58.80
2019-02-19T06:32:54.226Z,59.20
2019-02-19T06:35:27.270Z,59.00
2019-02-19T06:38:01.465Z,59.00
2019-02-19T06:40:34.627Z,58.90
2019-02-19T06:43:06.505Z,59.00
2019-02-19T06:45:39.347Z,59.50
2019-02-19T06:48:12.167Z,59.80
2019-02-19T06:50:44.087Z,59.90
2019-02-19T06:53:16.447Z,60.10
2019-02-19T06:55:49.408Z,59.90
2019-02-19T06:58:21.647Z,60.90
2019-02-19T07:00:54.807Z,60.30
2019-02-19T07:03:56.306Z,59.50
2019-02-19T07:06:30.641Z,59.30
2019-02-19T07:09:02.689Z,59.30
2019-02-19T07:11:35.147Z,58.50
2019-02-19T07:14:09.268Z,58.20
2019-02-19T07:16:42.507Z,57.30
2019-02-19T07:19:14.828Z,57.20
2019-02-19T07:21:47.447Z,56.70
2019-02-19T07:24:20.711Z,57.00
2019-02-19T07:26:53.269Z,56.80
2019-02-19T07:29:26.067Z,56.80
2019-02-19T07:31:59.334Z,56.80
2019-02-19T07:34:32.128Z,56.40
2019-02-19T07:37:04.928Z,56.40
2019-02-19T07:39:37.648Z,56.40
2019-02-19T07:42:08.915Z,56.40
2019-02-19T07:44:41.768Z,56.00
2019-02-19T07:47:14.707Z,56.00
2019-02-19T07:49:47.848Z,56.40
2019-02-19T07:52:21.409Z,55.80
2019-02-19T07:54:55.306Z,56.00
2019-02-19T07:57:28.867Z,56.20
2019-02-19T08:00:00.609Z,56.10
2019-02-19T08:02:33.569Z,55.80
2019-02-19T08:05:06.627Z,56.00
2019-02-19T08:07:38.791Z,55.70
2019-02-19T08:10:11.990Z,55.90
2019-02-19T08:12:43.830Z,55.30
2019-02-19T08:15:16.128Z,55.50
2019-02-19T08:17:48.130Z,55.20
2019-02-19T08:20:20.787Z,55.50
2019-02-19T08:22:52.588Z,54.60
2019-02-19T08:25:25.175Z,54.50
2019-02-19T08:27:56.715Z,53.80
2019-02-19T08:30:30.036Z,53.20
2019-02-19T08:33:02.497Z,52.90
2019-02-19T08:35:35.278Z,52.50
2019-02-19T08:38:07.776Z,52.10
2019-02-19T08:40:39.835Z,52.40
2019-02-19T08:43:12.456Z,52.30
2019-02-19T08:45:44.695Z,52.50
2019-02-19T08:48:16.296Z,53.30
2019-02-19T08:50:48.776Z,53.30
2019-02-19T08:53:21.416Z,53.20
2019-02-19T08:55:54.037Z,53.20
2019-02-19T08:58:26.296Z,53.70
2019-02-19T09:00:58.600Z,53.80
2019-02-19T09:03:31.042Z,53.10
2019-02-19T09:06:03.561Z,52.50
2019-02-19T09:08:35.681Z,52.50
2019-02-19T09:11:08.720Z,52.80
2019-02-19T09:13:42.343Z,52.80
2019-02-19T09:16:14.702Z,50.70
2019-02-19T09:18:47.386Z,50.70
2019-02-19T09:21:20.051Z,49.50
2019-02-19T09:23:52.145Z,49.20
2019-02-19T09:26:24.506Z,48.50
2019-02-19T09:28:57.026Z,47.90
2019-02-19T09:31:29.586Z,47.00
2019-02-19T09:34:02.893Z,46.20
2019-02-19T09:36:35.606Z,46.80
2019-02-19T09:39:09.388Z,46.10
2019-02-19T09:41:42.505Z,45.70
2019-02-19T09:44:15.526Z,44.90
2019-02-19T09:46:49.166Z,45.30
2019-02-19T09:49:23.866Z,44.70
2019-02-19T09:51:55.867Z,44.20
2019-02-19T09:54:28.685Z,44.00
2019-02-19T09:57:01.011Z,44.30
2019-02-19T09:59:33.253Z,44.30
2019-02-19T10:02:06.451Z,43.70
2019-02-19T10:04:40.291Z,43.40
2019-02-19T10:07:12.373Z,43.70
2019-02-19T10:09:45.271Z,43.10
2019-02-19T10:12:18.512Z,43.30
2019-02-19T10:14:51.892Z,42.90
2019-02-19T10:17:25.652Z,42.30
2019-02-19T10:19:59.432Z,42.20
2019-02-19T10:22:32.930Z,42.80
2019-02-19T10:25:05.792Z,42.50
2019-02-19T10:27:38.892Z,42.50
2019-02-19T10:30:13.963Z,42.70
2019-02-19T10:32:47.072Z,42.00
2019-02-19T10:35:19.497Z,41.50
2019-02-19T10:37:52.520Z,41.70
2019-02-19T10:40:24.839Z,40.80
2019-02-19T10:42:57.001Z,41.00
2019-02-19T10:45:29.736Z,40.80
2019-02-19T10:48:02.057Z,40.40
2019-02-19T10:50:34.356Z,40.00
2019-02-19T10:53:07.016Z,39.90
2019-02-19T10:55:38.836Z,39.40
2019-02-19T10:58:11.641Z,37.50
2019-02-19T11:00:45.140Z,38.10
2019-02-19T11:03:17.759Z,38.00
2019-02-19T11:05:50.417Z,48.70
2019-02-19T11:08:21.810Z,51.20
2019-02-19T11:10:53.880Z,51.40
2019-02-19T11:13:26.277Z,51.00
2019-02-19T11:15:58.638Z,50.90
2019-02-19T11:18:31.196Z,50.90
2019-02-19T11:21:04.300Z,52.00
2019-02-19T11:23:36.858Z,50.60
2019-02-19T11:26:09.477Z,49.10
2019-02-19T11:28:42.257Z,48.30
2019-02-19T11:31:14.518Z,47.90
2019-02-19T11:33:47.536Z,49.00
2019-02-19T11:36:19.716Z,48.70
2019-02-19T11:38:51.697Z,47.80
2019-02-19T11:41:24.197Z,46.90
2019-02-19T11:43:57.196Z,45.80
2019-02-19T11:46:29.616Z,43.50
2019-02-19T11:49:02.416Z,44.00
2019-02-19T11:51:34.838Z,43.20
2019-02-19T11:54:08.816Z,43.90
2019-02-19T11:56:42.406Z,43.30
2019-02-19T11:59:15.780Z,42.20
2019-02-19T12:01:48.796Z,41.20
2019-02-19T12:04:20.457Z,41.40
2019-02-19T12:06:54.255Z,40.70
2019-02-19T12:09:26.239Z,41.00
2019-02-19T12:11:59.917Z,39.90
2019-02-19T12:14:32.756Z,38.90
2019-02-19T12:17:05.635Z,38.30
2019-02-19T12:19:38.437Z,38.00
2019-02-19T12:22:11.017Z,37.70
2019-02-19T12:24:43.816Z,37.80
2019-02-19T12:27:16.395Z,37.90
2019-02-19T12:29:48.355Z,37.70
2019-02-19T12:32:21.199Z,38.20
2019-02-19T12:34:54.158Z,38.40
2019-02-19T12:37:26.218Z,38.50
2019-02-19T12:39:58.816Z,38.90
2019-02-19T12:42:31.662Z,38.80
2019-02-19T12:45:04.677Z,38.50
2019-02-19T12:47:36.596Z,38.70
2019-02-19T12:50:10.658Z,38.80
2019-02-19T12:52:43.997Z,39.00
2019-02-19T12:55:17.036Z,39.60
2019-02-19T12:57:49.909Z,40.20
2019-02-19T13:00:22.457Z,40.50
2019-02-19T13:02:55.577Z,40.30
2019-02-19T13:05:29.136Z,39.80
2019-02-19T13:08:01.336Z,39.10
2019-02-19T13:10:34.536Z,39.10
2019-02-19T13:13:06.337Z,40.00
2019-02-19T13:15:39.136Z,40.70
2019-02-19T13:18:11.376Z,40.30
2019-02-19T13:20:44.077Z,40.30
2019-02-19T13:23:19.257Z,41.00
2019-02-19T13:25:52.576Z,42.10
2019-02-19T13:28:24.737Z,41.30
2019-02-19T13:30:57.776Z,41.00
2019-02-19T13:33:29.778Z,40.30
2019-02-19T13:36:02.557Z,39.90
2019-02-19T13:38:35.796Z,39.80
2019-02-19T13:41:08.577Z,40.00
2019-02-19T13:43:42.357Z,39.60
2019-02-19T13:46:14.996Z,40.00
2019-02-19T13:48:47.636Z,40.30
2019-02-19T13:51:20.298Z,40.80
2019-02-19T13:53:56.217Z,40.90
2019-02-19T13:56:28.901Z,40.70
2019-02-19T13:59:01.458Z,41.50
2019-02-19T14:01:34.356Z,43.50
2019-02-19T14:04:07.121Z,44.80
2019-02-19T14:06:39.497Z,44.90
2019-02-19T14:09:12.756Z,45.60
2019-02-19T14:11:45.897Z,45.90
2019-02-19T14:14:40.735Z,45.90
2019-02-19T14:17:15.757Z,45.90
2019-02-19T14:19:52.777Z,45.70
2019-02-19T14:22:56.876Z,45.30
2019-02-19T14:25:55.336Z,44.80
2019-02-19T14:28:47.057Z,44.90
2019-02-19T14:31:51.398Z,44.70
2019-02-19T14:34:40.856Z,44.10
2019-02-19T14:37:38.016Z,44.10
2019-02-19T14:40:19.817Z,44.10
2019-02-19T14:43:09.338Z,44.10
2019-02-19T14:45:46.936Z,44.30
2019-02-19T14:48:44.357Z,44.40
2019-02-19T14:51:28.517Z,44.70
2019-02-19T14:54:22.321Z,44.80
2019-02-19T14:57:18.937Z,44.40
2019-02-19T15:00:09.178Z,44.70
2019-02-19T15:03:06.138Z,44.60
2019-02-19T15:06:06.919Z,45.10
2019-02-19T15:08:54.499Z,45.00
2019-02-19T15:11:46.297Z,45.70
2019-02-19T15:14:35.244Z,46.00
2019-02-19T15:17:25.497Z,46.00
2019-02-19T15:20:17.519Z,45.70
2019-02-19T15:22:59.316Z,45.90
2019-02-19T15:26:05.955Z,46.10
2019-02-19T15:28:55.418Z,45.90
2019-02-19T15:31:39.018Z,45.80
2019-02-19T15:34:29.762Z,46.10
2019-02-19T15:37:19.985Z,46.40
2019-02-19T15:40:29.441Z,46.60
2019-02-19T15:43:21.206Z,47.40
2019-02-19T15:46:22.191Z,48.50
2019-02-19T15:49:11.059Z,48.80
2019-02-19T15:52:01.935Z,49.20
2019-02-19T15:55:11.374Z,49.40
2019-02-19T15:58:04.746Z,49.30
2019-02-19T16:00:48.973Z,49.40
2019-02-19T16:03:35.177Z,49.60
2019-02-19T16:06:28.213Z,49.70
2019-02-19T16:09:22.338Z,50.00
2019-02-19T16:12:10.015Z,50.10
2019-02-19T16:15:07.135Z,50.40
2019-02-19T16:17:56.618Z,50.60
2019-02-19T16:20:50.856Z,50.10
2019-02-19T16:23:41.955Z,50.10
2019-02-19T16:26:51.650Z,50.80
2019-02-19T16:29:54.995Z,51.00
2019-02-19T16:32:54.780Z,51.50
2019-02-19T16:35:48.241Z,51.70
2019-02-19T16:38:38.002Z,52.50
2019-02-19T16:41:31.553Z,52.20
2019-02-19T16:44:22.072Z,52.50
2019-02-19T16:47:17.161Z,53.00
2019-02-19T16:50:08.216Z,53.50
2019-02-19T16:52:59.402Z,53.80
2019-02-19T16:56:00.666Z,54.10
2019-02-19T16:59:05.469Z,54.30
2019-02-19T17:01:48.081Z,54.10
2019-02-19T17:04:29.962Z,54.60
2019-02-19T17:07:11.423Z,54.70
2019-02-19T17:09:52.201Z,54.80
2019-02-19T17:13:01.384Z,55.00
2019-02-19T17:15:52.110Z,55.70
2019-02-19T17:18:42.088Z,56.10
2019-02-19T17:21:36.572Z,56.20
2019-02-19T17:24:21.289Z,56.30
2019-02-19T17:27:27.174Z,56.50
2019-02-19T17:30:14.825Z,56.50
2019-02-19T17:33:11.554Z,56.70
2019-02-19T17:35:52.527Z,56.50
2019-02-19T17:38:37.434Z,56.90
2019-02-19T17:41:25.407Z,56.80
2019-02-19T17:44:15.045Z,57.00
2019-02-19T17:47:06.305Z,57.20
2019-02-19T17:49:53.464Z,57.20
2019-02-19T17:52:38.585Z,57.40
2019-02-19T17:55:38.065Z,57.50
2019-02-19T17:58:29.316Z,57.40
2019-02-19T18:01:24.671Z,57.70
2019-02-19T18:04:08.511Z,57.60
2019-02-19T18:07:01.311Z,57.70
2019-02-19T18:09:43.110Z,57.90
2019-02-19T18:12:40.272Z,58.00
2019-02-19T18:15:28.992Z,58.20
2019-02-19T18:18:22.792Z,58.40
2019-02-19T18:20:56.566Z,58.40
2019-02-19T18:23:29.891Z,58.40
2019-02-19T18:26:03.110Z,58.50
2019-02-19T18:28:35.370Z,58.50
2019-02-19T18:31:08.231Z,58.60
2019-02-19T18:33:41.714Z,58.70
2019-02-19T18:36:14.410Z,58.70
2019-02-19T18:38:47.172Z,58.80
2019-02-19T18:41:19.871Z,58.80
2019-02-19T18:43:52.412Z,59.10
2019-02-19T18:46:25.452Z,59.20
2019-02-19T18:48:58.513Z,59.50
2019-02-19T18:51:31.992Z,59.80
2019-02-19T18:54:05.111Z,60.80
2019-02-19T18:56:38.123Z,60.70
2019-02-19T18:59:10.674Z,60.70
2019-02-19T19:01:43.293Z,60.70
2019-02-19T19:04:16.137Z,60.50
2019-02-19T19:06:49.492Z,60.80
2019-02-19T19:09:22.272Z,60.80
2019-02-19T19:11:54.431Z,60.90
2019-02-19T19:14:27.758Z,60.20
2019-02-19T19:17:01.092Z,60.30
2019-02-19T19:19:34.331Z,60.70
2019-02-19T19:22:07.452Z,60.20
2019-02-19T19:24:40.212Z,59.30
2019-02-19T19:27:12.932Z,59.10
2019-02-19T19:29:46.172Z,59.70
2019-02-19T19:32:18.434Z,59.90
2019-02-19T19:34:51.391Z,59.90
2019-02-19T19:37:23.311Z,60.20
2019-02-19T19:39:56.136Z,59.30
2019-02-19T19:42:29.533Z,59.70
2019-02-19T19:45:02.692Z,59.40
2019-02-19T19:47:35.432Z,59.80
2019-02-19T19:50:08.733Z,59.60
2019-02-19T19:52:41.413Z,59.20
2019-02-19T19:55:15.492Z,59.90
2019-02-19T19:57:48.371Z,60.80
2019-02-19T20:00:22.036Z,61.10
2019-02-19T20:02:55.152Z,61.80
2019-02-19T20:05:27.221Z,62.50
2019-02-19T20:07:59.785Z,62.60
2019-02-19T20:10:33.158Z,62.20
2019-02-19T20:13:04.971Z,62.80
2019-02-19T20:15:37.836Z,62.90
2019-02-19T20:18:10.331Z,63.20
2019-02-19T20:20:44.371Z,62.90
2019-02-19T20:23:16.991Z,62.70
2019-02-19T20:25:49.154Z,62.80
2019-02-19T20:28:21.893Z,63.00
2019-02-19T20:30:54.051Z,62.90
2019-02-19T20:33:27.095Z,63.30
2019-02-19T20:36:00.091Z,63.30
2019-02-19T20:38:33.773Z,63.30
2019-02-19T20:41:05.553Z,63.00
2019-02-19T20:43:38.430Z,62.50
2019-02-19T20:46:10.951Z,61.70
2019-02-19T20:48:44.535Z,61.70
2019-02-19T20:51:16.699Z,61.90
2019-02-19T20:53:49.452Z,61.80
2019-02-19T20:56:22.315Z,61.50
2019-02-19T20:58:55.152Z,61.10
2019-02-19T21:01:28.011Z,60.80
2019-02-19T21:04:01.491Z,60.60
2019-02-19T21:06:35.213Z,60.40
2019-02-19T21:09:08.691Z,60.50
2019-02-19T21:11:42.053Z,59.50
2019-02-19T21:14:15.491Z,59.30
2019-02-19T21:16:47.451Z,59.20
2019-02-19T21:19:19.913Z,59.40
2019-02-19T21:21:52.691Z,59.10
2019-02-19T21:24:24.932Z,59.30
2019-02-19T21:26:57.631Z,58.80
2019-02-19T21:29:31.051Z,58.80
2019-02-19T21:32:03.771Z,58.80
2019-02-19T21:34:35.690Z,58.90
2019-02-19T21:37:08.771Z,59.30
2019-02-19T21:39:41.597Z,60.40
2019-02-19T21:42:14.772Z,61.10
2019-02-19T21:44:47.913Z,62.40
2019-02-19T21:47:20.533Z,61.70
2019-02-19T21:49:52.817Z,61.70
2019-02-19T21:52:28.033Z,61.10
2019-02-19T21:55:00.753Z,61.30
2019-02-19T21:57:33.632Z,61.00
2019-02-19T22:00:06.091Z,60.90
2019-02-19T22:02:38.770Z,60.60
2019-02-19T22:05:11.959Z,60.40
2019-02-19T22:07:45.212Z,60.60
2019-02-19T22:10:18.031Z,60.30
2019-02-19T22:12:50.415Z,59.80
2019-02-19T22:15:23.214Z,59.90
2019-02-19T22:17:55.171Z,59.40
2019-02-19T22:20:46.471Z,59.30
2019-02-19T22:23:19.810Z,58.40
2019-02-19T22:25:53.472Z,58.10
2019-02-19T22:28:25.254Z,58.30
2019-02-19T22:30:58.152Z,58.20
2019-02-19T22:33:30.433Z,57.40
2019-02-19T22:36:03.170Z,56.30
2019-02-19T22:38:35.610Z,55.40
2019-02-19T22:41:08.451Z,54.10
2019-02-19T22:43:40.991Z,53.50
2019-02-19T22:46:13.452Z,53.00
2019-02-19T22:48:47.252Z,52.40
2019-02-19T22:51:19.959Z,52.30
2019-02-19T22:54:16.911Z,52.00
2019-02-19T22:56:50.113Z,51.80
2019-02-19T22:59:23.397Z,52.40
2019-02-19T23:02:07.340Z,53.00
2019-02-19T23:04:39.951Z,53.10
2019-02-19T23:07:12.931Z,53.10
2019-02-19T23:09:46.251Z,53.10
2019-02-19T23:12:19.292Z,53.20
2019-02-19T23:14:51.771Z,53.50
2019-02-19T23:17:24.770Z,54.70
2019-02-19T23:19:57.631Z,55.10
2019-02-19T23:22:29.931Z,55.40
2019-02-19T23:25:01.912Z,55.50
2019-02-19T23:27:34.491Z,55.70
2019-02-19T23:30:06.931Z,55.70
2019-02-19T23:32:39.970Z,55.70
2019-02-19T23:35:18.051Z,55.90
2019-02-19T23:37:50.950Z,56.10
2019-02-19T23:40:24.931Z,56.10
2019-02-19T23:42:58.150Z,56.30
2019-02-19T23:45:31.478Z,56.00
2019-02-19T23:48:05.414Z,56.30
2019-02-19T23:50:38.956Z,56.20
2019-02-19T23:53:11.550Z,56.20
2019-02-19T23:55:43.970Z,56.20
2019-02-19T23:58:17.091Z,55.80
